Terminal Aerodrome Forecast
Issued by NWS

Home | Current Version | Previous Version | Text Only | Print | Product List | Glossary On
Versions: 1 2 3 4 5 6 7 8 9 10 11 12 13 14 15
000
FTUS43 KMQT 221200 AAA
TAFCMX
TAF AMD
KCMX 221233Z 2213/2312 15010G15KT P6SM -SHRA BKN050
      TEMPO 2213/2216 3SM TSRA BKN040CB
     FM221600 26015G25KT P6SM BKN015
     FM221700 27018G26KT P6SM BKN015
     FM222300 32014G22KT P6SM BKN200
     FM230300 30008KT P6SM SCT200=

USA.gov is the U.S. government's official web portal to all federal, state and local government web resources and services.